createdAt,value
2023-01-30T00:00:26.319Z,50.908066
2023-01-30T00:01:26.311Z,50.908066
2023-01-30T00:02:26.452Z,50.908066
2023-01-30T00:03:26.293Z,50.908066
2023-01-30T00:04:26.291Z,50.908066
2023-01-30T00:05:26.280Z,50.908066
2023-01-30T00:06:26.279Z,50.908092
2023-01-30T00:07:26.296Z,50.908054
2023-01-30T00:08:26.260Z,50.908104
2023-01-30T00:09:26.248Z,50.908138
2023-01-30T00:10:26.236Z,50.908138
2023-01-30T00:11:26.238Z,50.908138
2023-01-30T00:12:26.268Z,50.908192
2023-01-30T00:13:26.223Z,50.908134
2023-01-30T00:14:26.213Z,50.908272
2023-01-30T00:15:26.207Z,50.908119
2023-01-30T00:16:26.274Z,50.908134
2023-01-30T00:17:26.220Z,50.908134
2023-01-30T00:18:26.194Z,50.908226
2023-01-30T00:19:26.174Z,50.908226
2023-01-30T00:20:26.176Z,50.908226
2023-01-30T00:21:26.165Z,50.908272
2023-01-30T00:22:26.189Z,50.908272
2023-01-30T00:23:26.148Z,50.908394
2023-01-30T00:24:26.210Z,50.908394
2023-01-30T00:25:26.246Z,50.908394
2023-01-30T00:26:26.137Z,50.908394
2023-01-30T00:27:26.138Z,50.908394
2023-01-30T00:28:26.111Z,50.908394
2023-01-30T00:29:26.100Z,50.908394
2023-01-30T00:30:26.144Z,50.908360
2023-01-30T00:31:26.148Z,50.908199
2023-01-30T00:32:26.100Z,50.908310
2023-01-30T00:33:26.079Z,50.908115
2023-01-30T00:34:26.064Z,50.908276
2023-01-30T00:35:26.061Z,50.908146
2023-01-30T00:36:26.060Z,50.908340
2023-01-30T00:37:26.063Z,50.908329
2023-01-30T00:38:26.028Z,50.908226
2023-01-30T00:39:26.022Z,50.908195
2023-01-30T00:40:26.019Z,50.908199
2023-01-30T00:41:26.007Z,50.908268
2023-01-30T00:42:26.022Z,50.908314
2023-01-30T00:43:25.992Z,50.908211
2023-01-30T00:44:25.986Z,50.908184
2023-01-30T00:45:25.977Z,50.908051
2023-01-30T00:46:25.968Z,50.908138
2023-01-30T00:47:25.986Z,50.908157
2023-01-30T00:48:25.956Z,50.908115
2023-01-30T00:49:25.947Z,50.908005
2023-01-30T00:50:25.938Z,50.908054
2023-01-30T00:51:25.929Z,50.908062
2023-01-30T00:52:25.955Z,50.908092
2023-01-30T00:53:25.946Z,50.908051
2023-01-30T00:54:25.951Z,50.908077
2023-01-30T00:55:25.902Z,50.908127
2023-01-30T00:56:25.895Z,50.908157
2023-01-30T00:57:25.914Z,50.908062
2023-01-30T00:58:25.878Z,50.908112
2023-01-30T00:59:25.887Z,50.908115
2023-01-30T01:00:25.863Z,50.908146
2023-01-30T01:01:25.860Z,50.908077
2023-01-30T01:02:25.881Z,50.908119
2023-01-30T01:03:25.841Z,50.908165
2023-01-30T01:04:25.847Z,50.908157
2023-01-30T01:05:25.827Z,50.908142
2023-01-30T01:06:25.814Z,50.908115
2023-01-30T01:07:25.842Z,50.908096
2023-01-30T01:08:25.805Z,50.908123
2023-01-30T01:09:25.799Z,50.908131
2023-01-30T01:10:25.792Z,50.908138
2023-01-30T01:11:25.803Z,50.908108
2023-01-30T01:12:25.803Z,50.908138
2023-01-30T01:13:25.810Z,50.908131
2023-01-30T01:14:25.767Z,50.908157
2023-01-30T01:15:25.756Z,50.908150
2023-01-30T01:16:25.798Z,50.908150
2023-01-30T01:17:25.771Z,50.908142
2023-01-30T01:18:25.735Z,50.908100
2023-01-30T01:19:25.721Z,50.908131
2023-01-30T01:20:25.711Z,50.908169
2023-01-30T01:21:25.708Z,50.908180
2023-01-30T01:22:25.724Z,50.908199
2023-01-30T01:23:25.695Z,50.908138
2023-01-30T01:24:25.698Z,50.908154
2023-01-30T01:25:25.681Z,50.908192
2023-01-30T01:26:25.735Z,50.908230
2023-01-30T01:27:25.688Z,50.908207
2023-01-30T01:28:25.657Z,50.908154
2023-01-30T01:29:25.656Z,50.908176
2023-01-30T01:30:25.648Z,50.908180
2023-01-30T01:31:25.838Z,50.908127
2023-01-30T01:32:25.658Z,50.908142
2023-01-30T01:33:25.626Z,50.908134
2023-01-30T01:34:25.616Z,50.908127
2023-01-30T01:35:25.613Z,50.908123
2023-01-30T01:36:51.494Z,50.908138
2023-01-30T01:37:27.620Z,50.908054
2023-01-30T01:38:25.587Z,50.908115
2023-01-30T01:39:25.576Z,50.908112
2023-01-30T01:40:25.574Z,50.908096
2023-01-30T01:41:26.572Z,50.908131
2023-01-30T01:42:25.579Z,50.908218
2023-01-30T01:43:26.550Z,50.908131
2023-01-30T01:44:25.543Z,50.908154
2023-01-30T01:45:25.540Z,50.908150
2023-01-30T01:46:25.540Z,50.908184
2023-01-30T01:47:25.554Z,50.908165
2023-01-30T01:48:25.516Z,50.908146
2023-01-30T01:49:25.515Z,50.908123
2023-01-30T01:50:25.498Z,50.908127
2023-01-30T01:51:25.495Z,50.908150
2023-01-30T01:52:25.481Z,50.908104
2023-01-30T01:53:25.503Z,50.908127
2023-01-30T01:54:25.466Z,50.908119
2023-01-30T01:55:25.466Z,50.908157
2023-01-30T01:56:25.455Z,50.908161
2023-01-30T01:57:25.443Z,50.908176
2023-01-30T01:58:25.466Z,50.908226
2023-01-30T01:59:25.433Z,50.908211
2023-01-30T02:00:25.425Z,50.908230
2023-01-30T02:01:25.473Z,50.908203
2023-01-30T02:02:25.459Z,50.908207
2023-01-30T02:03:25.427Z,50.908161
2023-01-30T02:04:25.399Z,50.908154
2023-01-30T02:05:25.391Z,50.908161
2023-01-30T02:06:25.378Z,50.908180
2023-01-30T02:07:25.380Z,50.908009
2023-01-30T02:08:25.407Z,50.908138
2023-01-30T02:09:25.358Z,50.908108
2023-01-30T02:10:25.356Z,50.908100
2023-01-30T02:11:25.341Z,50.908138
2023-01-30T02:12:25.342Z,50.908100
2023-01-30T02:13:25.368Z,50.908096
2023-01-30T02:14:25.329Z,50.908169
2023-01-30T02:15:25.323Z,50.908195
2023-01-30T02:16:25.308Z,50.908169
2023-01-30T02:17:25.335Z,50.908123
2023-01-30T02:18:25.321Z,50.908127
2023-01-30T02:19:25.287Z,50.908131
2023-01-30T02:20:25.274Z,50.908138
2023-01-30T02:21:25.264Z,50.908161
2023-01-30T02:22:25.258Z,50.908215
2023-01-30T02:23:25.287Z,50.908127
2023-01-30T02:24:25.250Z,50.908127
2023-01-30T02:25:25.238Z,50.908108
2023-01-30T02:26:25.286Z,50.908169
2023-01-30T02:27:25.223Z,50.908218
2023-01-30T02:28:25.237Z,50.908154
2023-01-30T02:29:25.207Z,50.908127
2023-01-30T02:30:25.306Z,50.908157
2023-01-30T02:31:25.239Z,50.908142
2023-01-30T02:32:25.188Z,50.908184
2023-01-30T02:33:25.202Z,50.908207
2023-01-30T02:34:25.167Z,50.908096
2023-01-30T02:35:25.163Z,50.908070
2023-01-30T02:36:25.151Z,50.908081
2023-01-30T02:37:25.154Z,50.908073
2023-01-30T02:38:25.161Z,50.908054
2023-01-30T02:39:25.128Z,50.908146
2023-01-30T02:40:25.121Z,50.908119
2023-01-30T02:41:25.117Z,50.908100
2023-01-30T02:42:25.110Z,50.908081
2023-01-30T02:43:25.130Z,50.908070
2023-01-30T02:44:25.095Z,50.908142
2023-01-30T02:45:25.091Z,50.908127
2023-01-30T02:46:25.124Z,50.908039
2023-01-30T02:47:25.073Z,50.908024
2023-01-30T02:48:25.107Z,50.907986
2023-01-30T02:49:25.061Z,50.908005
2023-01-30T02:50:25.051Z,50.908066
2023-01-30T02:51:25.040Z,50.908054
2023-01-30T02:52:25.036Z,50.908092
2023-01-30T02:53:25.055Z,50.908051
2023-01-30T02:54:25.017Z,50.908100
2023-01-30T02:55:25.015Z,50.908161
2023-01-30T02:56:25.011Z,50.908203
2023-01-30T02:57:25.003Z,50.908165
2023-01-30T02:58:24.998Z,50.908165
2023-01-30T02:59:25.009Z,50.908165
2023-01-30T03:00:25.978Z,50.908165
2023-01-30T03:01:24.992Z,50.908165
2023-01-30T03:02:24.976Z,50.908165
2023-01-30T03:03:24.956Z,50.908165
2023-01-30T03:04:24.975Z,50.908478
2023-01-30T03:05:24.940Z,50.908478
2023-01-30T03:06:24.933Z,50.908478
2023-01-30T03:07:24.947Z,50.908615
2023-01-30T03:08:24.923Z,50.908360
2023-01-30T03:09:24.939Z,50.908195
2023-01-30T03:10:24.901Z,50.908184
2023-01-30T03:11:24.899Z,50.908203
2023-01-30T03:12:24.892Z,50.908249
2023-01-30T03:13:24.884Z,50.907913
2023-01-30T03:14:24.904Z,50.907913
2023-01-30T03:15:24.869Z,50.908146
2023-01-30T03:16:24.890Z,50.908077
2023-01-30T03:17:24.863Z,50.908108
2023-01-30T03:18:24.847Z,50.908115
2023-01-30T03:19:24.860Z,50.908134
2023-01-30T03:20:24.832Z,50.908192
2023-01-30T03:21:24.818Z,50.908207
2023-01-30T03:22:24.818Z,50.908218
2023-01-30T03:23:24.828Z,50.908184
2023-01-30T03:24:24.826Z,50.908173
2023-01-30T03:25:24.799Z,50.908169
2023-01-30T03:26:24.813Z,50.908173
2023-01-30T03:27:24.783Z,50.908176
2023-01-30T03:28:24.779Z,50.908215
2023-01-30T03:29:24.793Z,50.908192
2023-01-30T03:30:24.753Z,50.908161
2023-01-30T03:31:24.840Z,50.908218
2023-01-30T03:32:24.738Z,50.908150
2023-01-30T03:33:24.734Z,50.908211
2023-01-30T03:34:24.755Z,50.908192
2023-01-30T03:35:24.713Z,50.908184
2023-01-30T03:36:24.707Z,50.908207
2023-01-30T03:37:24.703Z,50.908249
2023-01-30T03:38:24.695Z,50.908134
2023-01-30T03:39:24.713Z,50.908131
2023-01-30T03:40:24.680Z,50.908154
2023-01-30T03:41:24.672Z,50.908203
2023-01-30T03:42:24.674Z,50.908218
2023-01-30T03:43:24.657Z,50.908184
2023-01-30T03:44:24.676Z,50.908188
2023-01-30T03:45:24.645Z,50.908089
2023-01-30T03:46:24.706Z,50.908127
2023-01-30T03:47:24.639Z,50.908184
2023-01-30T03:48:24.627Z,50.908138
2023-01-30T03:49:24.653Z,50.908207
2023-01-30T03:50:24.609Z,50.908195
2023-01-30T03:51:24.620Z,50.908169
2023-01-30T03:52:24.596Z,50.908127
2023-01-30T03:53:24.583Z,50.908157
2023-01-30T03:54:24.609Z,50.908165
2023-01-30T03:55:24.595Z,50.908207
2023-01-30T03:56:24.612Z,50.908207
2023-01-30T03:57:24.569Z,50.908150
2023-01-30T03:58:24.557Z,50.908195
2023-01-30T03:59:24.569Z,50.908203
2023-01-30T04:00:24.531Z,50.908154
2023-01-30T04:01:24.588Z,50.908146
2023-01-30T04:02:24.558Z,50.908161
2023-01-30T04:03:24.516Z,50.908165
2023-01-30T04:04:24.536Z,50.908234
2023-01-30T04:05:24.497Z,50.908192
2023-01-30T04:06:24.497Z,50.908192
2023-01-30T04:07:24.486Z,50.908165
2023-01-30T04:08:24.478Z,50.908180
2023-01-30T04:09:24.497Z,50.908169
2023-01-30T04:10:24.463Z,50.908173
2023-01-30T04:11:24.458Z,50.908138
2023-01-30T04:12:24.445Z,50.908127
2023-01-30T04:13:24.437Z,50.908173
2023-01-30T04:14:24.459Z,50.908157
2023-01-30T04:15:24.427Z,50.908100
2023-01-30T04:16:25.528Z,50.908127
2023-01-30T04:17:24.417Z,50.908123
2023-01-30T04:18:24.403Z,50.908142
2023-01-30T04:19:24.421Z,50.908173
2023-01-30T04:20:24.393Z,50.908192
2023-01-30T04:21:24.377Z,50.908146
2023-01-30T04:22:24.369Z,50.908161
2023-01-30T04:23:24.380Z,50.908165
2023-01-30T04:24:24.394Z,50.908195
2023-01-30T04:25:24.349Z,50.908195
2023-01-30T04:26:24.410Z,50.908085
2023-01-30T04:27:24.335Z,50.908127
2023-01-30T04:28:24.336Z,50.908146
2023-01-30T04:29:24.340Z,50.908161
2023-01-30T04:30:24.368Z,50.908157
2023-01-30T04:31:24.310Z,50.908123
2023-01-30T04:32:24.291Z,50.908203
2023-01-30T04:33:24.284Z,50.908127
2023-01-30T04:34:24.305Z,50.908142
2023-01-30T04:35:24.272Z,50.908154
2023-01-30T04:36:24.274Z,50.908161
2023-01-30T04:37:24.257Z,50.908180
2023-01-30T04:38:24.259Z,50.908142
2023-01-30T04:39:24.260Z,50.908188
2023-01-30T04:40:24.236Z,50.908272
2023-01-30T04:41:24.221Z,50.908146
2023-01-30T04:42:24.214Z,50.908131
2023-01-30T04:43:24.209Z,50.908146
2023-01-30T04:44:24.228Z,50.908115
2023-01-30T04:45:24.194Z,50.908115
2023-01-30T04:46:24.193Z,50.908253
2023-01-30T04:47:24.182Z,50.908085
2023-01-30T04:48:24.168Z,50.908222
2023-01-30T04:49:24.187Z,50.908272
2023-01-30T04:50:24.151Z,50.908257
2023-01-30T04:51:24.153Z,50.908215
2023-01-30T04:52:24.138Z,50.908234
2023-01-30T04:53:24.129Z,50.908253
2023-01-30T04:54:24.154Z,50.908264
2023-01-30T04:55:24.111Z,50.908249
2023-01-30T04:56:24.104Z,50.908199
2023-01-30T04:57:24.101Z,50.908264
2023-01-30T04:58:24.107Z,50.908218
2023-01-30T04:59:24.110Z,50.908165
2023-01-30T05:00:24.099Z,50.908195
2023-01-30T05:01:24.083Z,50.908360
2023-01-30T05:02:24.133Z,50.908459
2023-01-30T05:03:24.055Z,50.908539
2023-01-30T05:04:24.071Z,50.908581
2023-01-30T05:05:24.040Z,50.908581
2023-01-30T05:06:24.030Z,50.908581
2023-01-30T05:07:24.026Z,50.908581
2023-01-30T05:08:24.022Z,50.908581
2023-01-30T05:09:24.035Z,50.908581
2023-01-30T05:10:23.999Z,50.908581
2023-01-30T05:11:23.988Z,50.909355
2023-01-30T05:12:23.984Z,50.909084
2023-01-30T05:13:23.978Z,50.909012
2023-01-30T05:14:23.974Z,50.908756
2023-01-30T05:15:24.000Z,50.908756
2023-01-30T05:16:23.958Z,50.908634
2023-01-30T05:17:23.953Z,50.908443
2023-01-30T05:18:23.938Z,50.908329
2023-01-30T05:19:23.927Z,50.908070
2023-01-30T05:20:23.938Z,50.908222
2023-01-30T05:21:24.914Z,50.908195
2023-01-30T05:22:23.914Z,50.908173
2023-01-30T05:23:23.905Z,50.908119
2023-01-30T05:24:23.904Z,50.908310
2023-01-30T05:25:23.912Z,50.907970
2023-01-30T05:26:23.915Z,50.908009
2023-01-30T05:27:23.869Z,50.908089
2023-01-30T05:28:23.865Z,50.908119
2023-01-30T05:29:23.845Z,50.907917
2023-01-30T05:30:24.926Z,50.907837
2023-01-30T05:31:23.920Z,50.907894
2023-01-30T05:32:23.831Z,50.907864
2023-01-30T05:33:23.826Z,50.907879
2023-01-30T05:34:23.818Z,50.907990
2023-01-30T05:35:23.843Z,50.908237
2023-01-30T05:36:23.827Z,50.908100
2023-01-30T05:37:23.790Z,50.908176
2023-01-30T05:38:23.788Z,50.908176
2023-01-30T05:39:23.789Z,50.908264
2023-01-30T05:40:23.796Z,50.908089
2023-01-30T05:41:23.760Z,50.907955
2023-01-30T05:42:23.760Z,50.908062
2023-01-30T05:43:23.748Z,50.907921
2023-01-30T05:44:23.741Z,50.907791
2023-01-30T05:45:23.752Z,50.907845
2023-01-30T05:46:23.744Z,50.907825
2023-01-30T05:47:23.720Z,50.907829
2023-01-30T05:48:23.714Z,50.907829
2023-01-30T05:49:23.702Z,50.907829
2023-01-30T05:50:23.709Z,50.907829
2023-01-30T05:51:24.679Z,50.907829
2023-01-30T05:52:23.670Z,50.907829
2023-01-30T05:53:23.676Z,50.907829
2023-01-30T05:54:23.672Z,50.907829
2023-01-30T05:55:23.677Z,50.907829
2023-01-30T05:56:23.658Z,50.907829
2023-01-30T05:57:23.634Z,50.907722
2023-01-30T05:58:23.629Z,50.907742
2023-01-30T05:59:23.620Z,50.907742
2023-01-30T06:00:23.638Z,50.907833
2023-01-30T06:01:23.607Z,50.907974
2023-01-30T06:02:23.622Z,50.907887
2023-01-30T06:03:23.598Z,50.907986
2023-01-30T06:04:23.582Z,50.908146
2023-01-30T06:05:23.601Z,50.908146
2023-01-30T06:06:23.576Z,50.908146
2023-01-30T06:07:23.556Z,50.908146
2023-01-30T06:08:23.551Z,50.908146
2023-01-30T06:09:23.547Z,50.908146
2023-01-30T06:10:23.559Z,50.908146
2023-01-30T06:11:23.535Z,50.908146
2023-01-30T06:12:23.521Z,50.908146
2023-01-30T06:13:23.519Z,50.908146
2023-01-30T06:14:23.502Z,50.908146
2023-01-30T06:15:23.527Z,50.908146
2023-01-30T06:16:23.563Z,50.908146
2023-01-30T06:17:23.481Z,50.908146
2023-01-30T06:18:23.480Z,50.908146
2023-01-30T06:19:23.454Z,50.908146
2023-01-30T06:20:24.481Z,50.908146
2023-01-30T06:21:23.459Z,50.908146
2023-01-30T06:22:23.442Z,50.908146
2023-01-30T06:23:23.453Z,50.908146
2023-01-30T06:24:23.466Z,50.908146
2023-01-30T06:25:23.445Z,50.908146
2023-01-30T06:26:23.450Z,50.908146
2023-01-30T06:27:24.405Z,50.908146
2023-01-30T06:28:23.399Z,50.908146
2023-01-30T06:29:23.385Z,50.908146
2023-01-30T06:30:23.420Z,50.908146
2023-01-30T06:31:23.409Z,50.908146
2023-01-30T06:32:23.371Z,50.908146
2023-01-30T06:33:23.353Z,50.908146
2023-01-30T06:34:23.351Z,50.908146
2023-01-30T06:35:23.366Z,50.908146
2023-01-30T06:36:23.341Z,50.908146
2023-01-30T06:37:23.337Z,50.908119
2023-01-30T06:38:23.327Z,50.908131
2023-01-30T06:39:23.315Z,50.908092
2023-01-30T06:40:23.327Z,50.907986
2023-01-30T06:41:23.303Z,50.908092
2023-01-30T06:42:23.298Z,50.908005
2023-01-30T06:43:23.286Z,50.908035
2023-01-30T06:44:23.272Z,50.908085
2023-01-30T06:45:23.293Z,50.908188
2023-01-30T06:46:23.273Z,50.908146
2023-01-30T06:47:23.253Z,50.908134
2023-01-30T06:48:23.244Z,50.908081
2023-01-30T06:49:23.232Z,50.908207
2023-01-30T06:50:23.256Z,50.908062
2023-01-30T06:51:23.221Z,50.908119
2023-01-30T06:52:23.223Z,50.908203
2023-01-30T06:53:23.202Z,50.908123
2023-01-30T06:54:23.195Z,50.908199
2023-01-30T06:55:23.221Z,50.908169
2023-01-30T06:56:23.180Z,50.908169
2023-01-30T06:57:23.171Z,50.908092
2023-01-30T06:58:23.163Z,50.908073
2023-01-30T06:59:23.165Z,50.908066
2023-01-30T07:00:23.178Z,50.908108
2023-01-30T07:01:23.140Z,50.908104
2023-01-30T07:02:23.134Z,50.908138
2023-01-30T07:03:23.126Z,50.908127
2023-01-30T07:04:23.144Z,50.908134
2023-01-30T07:05:23.135Z,50.908112
2023-01-30T07:06:23.104Z,50.908142
2023-01-30T07:07:23.092Z,50.908096
2023-01-30T07:08:24.326Z,50.908104
2023-01-30T07:09:24.075Z,50.908104
2023-01-30T07:10:23.105Z,50.908131
2023-01-30T07:11:23.067Z,50.908142
2023-01-30T07:12:23.053Z,50.908108
2023-01-30T07:13:23.070Z,50.908100
2023-01-30T07:14:23.043Z,50.908112
2023-01-30T07:15:23.059Z,50.908089
2023-01-30T07:16:23.156Z,50.908115
2023-01-30T07:17:23.016Z,50.908115
2023-01-30T07:18:23.011Z,50.908123
2023-01-30T07:19:23.010Z,50.908169
2023-01-30T07:20:23.016Z,50.908150
2023-01-30T07:21:22.986Z,50.908146
2023-01-30T07:22:22.985Z,50.908123
2023-01-30T07:23:22.978Z,50.908104
2023-01-30T07:24:22.963Z,50.908108
2023-01-30T07:25:22.999Z,50.908070
2023-01-30T07:26:23.020Z,50.908092
2023-01-30T07:27:22.940Z,50.908089
2023-01-30T07:28:22.935Z,50.908115
2023-01-30T07:29:22.926Z,50.908081
2023-01-30T07:30:22.964Z,50.908092
2023-01-30T07:31:22.928Z,50.908119
2023-01-30T07:32:22.956Z,50.908165
2023-01-30T07:33:22.892Z,50.908051
2023-01-30T07:34:22.886Z,50.908081
2023-01-30T07:35:23.204Z,50.908119
2023-01-30T07:36:22.870Z,50.908211
2023-01-30T07:37:22.861Z,50.908146
2023-01-30T07:38:22.863Z,50.908157
2023-01-30T07:39:22.849Z,50.908199
2023-01-30T07:40:22.880Z,50.908287
2023-01-30T07:41:22.832Z,50.908173
2023-01-30T07:42:22.820Z,50.908108
2023-01-30T07:43:23.819Z,50.908127
2023-01-30T07:44:22.815Z,50.908176
2023-01-30T07:45:22.833Z,50.908138
2023-01-30T07:46:22.797Z,50.908169
2023-01-30T07:47:22.790Z,50.908073
2023-01-30T07:48:22.792Z,50.908039
2023-01-30T07:49:22.780Z,50.908077
2023-01-30T07:50:22.804Z,50.908123
2023-01-30T07:51:22.760Z,50.908287
2023-01-30T07:52:22.753Z,50.908291
2023-01-30T07:53:22.752Z,50.908188
2023-01-30T07:54:22.741Z,50.908134
2023-01-30T07:55:22.901Z,50.908142
2023-01-30T07:56:22.723Z,50.908142
2023-01-30T07:57:22.720Z,50.908131
2023-01-30T07:58:22.728Z,50.908112
2023-01-30T07:59:22.698Z,50.908146
2023-01-30T08:00:22.732Z,50.907684
2023-01-30T08:01:22.759Z,50.907986
2023-01-30T08:02:22.677Z,50.908104
2023-01-30T08:03:22.670Z,50.908192
2023-01-30T08:04:22.674Z,50.908184
2023-01-30T08:05:22.659Z,50.908081
2023-01-30T08:06:22.677Z,50.908104
2023-01-30T08:07:22.643Z,50.908131
2023-01-30T08:08:22.633Z,50.908142
2023-01-30T08:09:22.626Z,50.908100
2023-01-30T08:10:22.624Z,50.908115
2023-01-30T08:11:22.635Z,50.908112
2023-01-30T08:12:22.601Z,50.908287
2023-01-30T08:13:22.601Z,50.908043
2023-01-30T08:14:22.596Z,50.908112
2023-01-30T08:15:23.111Z,50.908157
2023-01-30T08:16:23.621Z,50.908176
2023-01-30T08:17:22.590Z,50.908138
2023-01-30T08:18:22.563Z,50.908192
2023-01-30T08:19:22.553Z,50.908108
2023-01-30T08:20:22.542Z,50.908134
2023-01-30T08:21:22.560Z,50.908115
2023-01-30T08:22:22.534Z,50.908127
2023-01-30T08:23:22.521Z,50.908150
2023-01-30T08:24:22.510Z,50.908150
2023-01-30T08:25:22.505Z,50.907990
2023-01-30T08:26:22.600Z,50.908070
2023-01-30T08:27:22.498Z,50.908112
2023-01-30T08:28:22.484Z,50.908150
2023-01-30T08:29:22.476Z,50.908112
2023-01-30T08:30:22.659Z,50.908119
2023-01-30T08:31:22.522Z,50.908096
2023-01-30T08:32:22.455Z,50.908154
2023-01-30T08:33:22.459Z,50.908154
2023-01-30T08:34:22.457Z,50.908104
2023-01-30T08:35:22.444Z,50.908112
2023-01-30T08:36:22.446Z,50.908134
2023-01-30T08:37:23.425Z,50.908154
2023-01-30T08:38:22.418Z,50.908142
2023-01-30T08:39:22.405Z,50.908157
2023-01-30T08:40:22.407Z,50.908142
2023-01-30T08:41:22.420Z,50.908173
2023-01-30T08:42:22.387Z,50.908096
2023-01-30T08:43:22.379Z,50.908096
2023-01-30T08:44:22.379Z,50.908092
2023-01-30T08:45:22.363Z,50.908073
2023-01-30T08:46:22.393Z,50.908100
2023-01-30T08:47:22.351Z,50.908222
2023-01-30T08:48:22.353Z,50.908199
2023-01-30T08:49:22.331Z,50.908085
2023-01-30T08:50:22.319Z,50.908016
2023-01-30T08:51:22.335Z,50.908195
2023-01-30T08:52:22.306Z,50.908024
2023-01-30T08:53:22.300Z,50.908150
2023-01-30T08:54:22.284Z,50.908215
2023-01-30T08:55:22.289Z,50.908123
2023-01-30T08:56:22.296Z,50.908295
2023-01-30T08:57:22.262Z,50.908352
2023-01-30T08:58:22.263Z,50.908226
2023-01-30T08:59:22.249Z,50.908211
2023-01-30T09:00:22.242Z,50.908165
2023-01-30T09:01:22.301Z,50.908142
2023-01-30T09:02:23.262Z,50.908161
2023-01-30T09:03:22.232Z,50.908104
2023-01-30T09:04:22.216Z,50.908092
2023-01-30T09:05:22.204Z,50.908131
2023-01-30T09:06:23.811Z,50.908092
2023-01-30T09:07:22.193Z,50.908195
2023-01-30T09:08:22.197Z,50.908199
2023-01-30T09:09:22.170Z,50.908131
2023-01-30T09:10:22.170Z,50.908127
2023-01-30T09:11:22.184Z,50.907932
2023-01-30T09:12:22.157Z,50.908104
2023-01-30T09:13:22.141Z,50.908131
2023-01-30T09:14:23.168Z,50.908169
2023-01-30T09:15:22.122Z,50.908203
2023-01-30T09:16:22.193Z,50.908031
2023-01-30T09:17:22.115Z,50.908115
2023-01-30T09:18:22.102Z,50.908241
2023-01-30T09:19:22.090Z,50.908154
2023-01-30T09:20:22.089Z,50.908218
2023-01-30T09:21:22.121Z,50.908123
2023-01-30T09:22:22.071Z,50.908115
2023-01-30T09:23:22.064Z,50.908188
2023-01-30T09:24:22.066Z,50.907970
2023-01-30T09:25:22.046Z,50.907970
2023-01-30T09:26:22.123Z,50.908154
2023-01-30T09:27:22.036Z,50.908195
2023-01-30T09:28:22.023Z,50.908260
2023-01-30T09:29:22.022Z,50.908085
2023-01-30T09:30:22.145Z,50.908020
2023-01-30T09:31:22.117Z,50.908020
2023-01-30T09:32:21.988Z,50.908173
2023-01-30T09:33:21.987Z,50.908176
2023-01-30T09:34:21.970Z,50.908108
2023-01-30T09:35:21.960Z,50.908108
2023-01-30T09:36:22.003Z,50.908108
2023-01-30T09:37:21.953Z,50.908108
2023-01-30T09:38:21.946Z,50.908108
2023-01-30T09:39:21.938Z,50.908108
2023-01-30T09:40:21.922Z,50.908108
2023-01-30T09:41:21.939Z,50.908108
2023-01-30T09:42:21.907Z,50.908108
2023-01-30T09:43:21.902Z,50.908108
2023-01-30T09:44:21.897Z,50.907528
2023-01-30T09:45:21.883Z,50.907528
2023-01-30T09:46:21.921Z,50.907528
2023-01-30T09:47:21.875Z,50.907528
2023-01-30T09:48:21.879Z,50.907730
2023-01-30T09:49:21.854Z,50.907730
2023-01-30T09:50:21.915Z,50.907730
2023-01-30T09:51:21.890Z,50.907730
2023-01-30T09:52:21.822Z,50.907730
2023-01-30T09:53:21.829Z,50.908218
2023-01-30T09:54:21.816Z,50.908192
2023-01-30T09:55:21.830Z,50.908138
2023-01-30T09:56:21.821Z,50.908142
2023-01-30T09:57:22.534Z,50.908192
2023-01-30T09:58:21.785Z,50.908134
2023-01-30T09:59:21.801Z,50.908150
2023-01-30T10:00:21.752Z,50.908157
2023-01-30T10:01:22.780Z,50.908066
2023-01-30T10:02:21.747Z,50.908138
2023-01-30T10:03:21.765Z,50.908207
2023-01-30T10:04:21.755Z,50.908180
2023-01-30T10:05:21.719Z,50.908180
2023-01-30T10:06:21.743Z,50.908176
2023-01-30T10:07:21.766Z,50.908161
2023-01-30T10:08:21.704Z,50.908184
2023-01-30T10:09:21.692Z,50.908184
2023-01-30T10:10:21.683Z,50.908173
2023-01-30T10:11:21.681Z,50.908184
2023-01-30T10:12:21.700Z,50.908207
2023-01-30T10:13:21.657Z,50.908154
2023-01-30T10:14:21.650Z,50.908146
2023-01-30T10:15:21.647Z,50.908154
2023-01-30T10:16:21.703Z,50.908184
2023-01-30T10:17:21.669Z,50.908154
2023-01-30T10:18:21.630Z,50.908176
2023-01-30T10:19:34.755Z,50.908157
2023-01-30T10:20:23.985Z,50.908154
2023-01-30T10:21:21.605Z,50.908176
2023-01-30T10:22:21.608Z,50.908176
2023-01-30T10:23:21.583Z,50.908134
2023-01-30T10:24:21.567Z,50.908131
2023-01-30T10:25:21.568Z,50.908142
2023-01-30T10:26:21.600Z,50.908142
2023-01-30T10:27:21.572Z,50.908176
2023-01-30T10:28:21.539Z,50.908173
2023-01-30T10:29:21.533Z,50.908142
2023-01-30T10:30:21.938Z,50.908157
2023-01-30T10:31:21.609Z,50.908165
2023-01-30T10:32:21.537Z,50.908142
2023-01-30T10:33:21.505Z,50.908134
2023-01-30T10:34:21.493Z,50.908115
2023-01-30T10:35:21.485Z,50.908169
2023-01-30T10:36:21.480Z,50.908142
2023-01-30T10:37:21.493Z,50.908146
2023-01-30T10:38:21.466Z,50.908150
2023-01-30T10:39:21.455Z,50.908150
2023-01-30T10:40:21.563Z,50.908150
2023-01-30T10:41:21.439Z,50.908154
2023-01-30T10:42:21.451Z,50.908127
2023-01-30T10:43:21.420Z,50.908195
2023-01-30T10:44:21.416Z,50.908188
2023-01-30T10:45:21.426Z,50.908020
2023-01-30T10:46:21.439Z,50.908100
2023-01-30T10:47:22.995Z,50.908134
2023-01-30T10:48:26.544Z,50.908104
2023-01-30T10:49:23.378Z,50.908112
2023-01-30T10:50:21.608Z,50.908127
2023-01-30T10:51:21.360Z,50.908127
2023-01-30T10:52:21.377Z,50.908134
2023-01-30T10:53:21.355Z,50.908157
2023-01-30T10:54:21.336Z,50.908127
2023-01-30T10:55:36.061Z,50.908096
2023-01-30T10:56:23.321Z,50.908127
2023-01-30T10:57:21.337Z,50.908142
2023-01-30T10:58:21.305Z,50.908154
2023-01-30T10:59:21.293Z,50.908157
2023-01-30T11:00:21.422Z,50.908150
2023-01-30T11:01:21.348Z,50.908131
2023-01-30T11:02:21.303Z,50.908085
2023-01-30T11:03:21.270Z,50.908134
2023-01-30T11:04:21.268Z,50.908127
2023-01-30T11:05:21.252Z,50.908150
2023-01-30T11:06:21.247Z,50.908188
2023-01-30T11:07:21.270Z,50.908249
2023-01-30T11:08:21.224Z,50.908211
2023-01-30T11:09:23.195Z,50.908146
2023-01-30T11:10:21.213Z,50.908150
2023-01-30T11:11:21.212Z,50.908157
2023-01-30T11:12:21.192Z,50.908188
2023-01-30T11:13:21.210Z,50.908176
2023-01-30T11:14:21.175Z,50.908215
2023-01-30T11:15:21.160Z,50.908150
2023-01-30T11:16:22.234Z,50.908146
2023-01-30T11:17:21.152Z,50.908127
2023-01-30T11:19:23.135Z,50.908131
2023-01-30T11:20:22.259Z,50.908112
2023-01-30T11:21:22.282Z,50.908127
2023-01-30T11:22:21.117Z,50.908131
2023-01-30T11:23:21.485Z,50.908108
2023-01-30T11:24:22.104Z,50.908142
2023-01-30T11:25:21.423Z,50.908150